Terminal Aerodrome Forecast
Issued by NWS

Home | Current Version | Previous Version | Text Only | Print | Product List | Glossary On
Versions: 1 2 3 4 5 6 7 8 9 10 11 12 13 14 15 16 17
000
FTUS43 KLSX 261400 AAA
TAFSUS
TAF AMD
KSUS 261429Z 2614/2712 23008KT P6SM SCT100 BKN250
     FM262100 23010KT P6SM VCTS FEW060CB BKN250
     FM270100 23006KT P6SM SCT200=

USA.gov is the U.S. government's official web portal to all federal, state and local government web resources and services.